Impacts TAF Board INFO
FOR SITUATIONAL AWARENESS. NOT TO BE USED FOR FLIGHT PLANNING PURPOSES.
IDs:

KMDW - Chicago/Midway Intl, IL, US

Issued at 1132 UTC 18 Nov 2017
Updated at 1216 UTC 18 Nov 2017
Potential Impact None Slight Moderate High
Time1153Z 18/13Z 18/14Z 18/15Z 18/16Z 18/17Z 18/18Z 18/19Z 18/20Z 18/21Z 18/22Z 18/23Z 19/00Z 19/01Z>>
Type OBS PRVL PRVL PRVL PRVL PRVL PRVL PRVL PRVL PRVL PRVL PRVL PRVL PRVL
VIS 2.5 5 5 2 2 2 2 2 5 5 >6 >6 >6 >6
CIG 5 6 6 6 6 6 6 6 15 15 25 25 25 25
Cover OVC OVC OVC OVC OVC OVC OVC OVC OVC OVC BKN BKN BKN BKN
FltCat IFR IFR IFR IFR IFR IFR IFR IFR MVFR MVFR MVFR MVFR MVFR MVFR
WX BR -SHRA BR -SHRA BR RA BR RA BR RA BR RA BR RA BR -RA -RA -- -- -- --
WDir 30 10 10 360 360 360 360 360 340 340 330 330 330 330
WSpd 13 11 11 16 16 16 16 16 19 19 18 18 18 18
WGst -- 17 17 27 27 27 27 27 30 30 28 28 28 28

Raw TAF
KMDW 181132Z 1812/1912 01011G17KT 5SM -SHRA BR SCT004 OVC006
  TEMPO 1812/1813 2SM BR BKN004
  FM181500 36016G27KT 2SM RA BR BKN006 OVC012
  FM182000 34019G30KT 5SM -RA BKN015 OVC025
  FM182200 33018G28KT P6SM BKN025
  FM190600 32013G20KT P6SM SCT025


Raw METAR
KMDW 181153Z 03013KT 2 1/2SM BR OVC005 08/07 A2946 RMK AO2 SLP981 60001 70053 T00780072 10089 20078 58017
KMDW 181125Z 03008KT 3SM BR BKN005 OVC009 08/08 A2948 RMK AO2 T00830078
KMDW 181053Z 02006KT 1 1/2SM BR OVC003 08/08 A2950 RMK AO2 SLP992 T00830083
KMDW 180953Z 13004KT 1 1/4SM BR OVC004 08/08 A2950 RMK AO2 DZE20 SLP994 P0000 T00830083

METAR Board
Radar Display
Forecast Discussion

FOR SITUATIONAL AWARENESS. NOT TO BE USED FOR FLIGHT PLANNING PURPOSES.